»·PEaware :: SKW3605 KLAS-KLAX

SKW3605 :: KLAS-KLAX

FLIGHT INFORMATION

Flight Status: Arrived
Operator:
SkyWest Airlines
More flights by this operator :: More flights under this callsign
Pilot: Alec D. (17934)
Aircraft: EMBRAER EMB-170/175
(E170)
More flights by this aircraft type
Origin: KLAS McCarran Intl
United States
Destination: KLAX Los Angeles Intl
United States
More flights between these airports :: More routes between these airports
Route: BOACH8 RIKII SHTNR ANJLL4
File this flight plan on PilotEdge
Remarks:
Altitude:
(Current/Filed)
26,000ft
Speed:
(Current/Filed)
400kts
Departed: 21-Aug-18 07:23 PM
Arrived: 21-Aug-18 08:06 PM
Distance/Time
Traveled:
205nm/0:42
Distance/Time
To Go:
Arrived

Flight Plot

Page will automatically refresh every two minutes.

Flight plan parsing failed; only flown route is shown


Map Options




Map Legend


Flown Route
Filed Route
Departure Airport
Arrival Airport
Navaid (VOR, NDB)
Fix

Horizontal Profiles

Position Reports

Time Latitude Longitude Heading Altitude Ground
Speed
21-Aug-18 18:50 36.080831 -115.138382 313 2192ft 0kts
21-Aug-18 18:51 36.080831 -115.138382 313 2192ft 0kts
21-Aug-18 18:52 36.080831 -115.138382 313 2192ft 0kts
21-Aug-18 18:53 36.080831 -115.138382 313 2192ft 0kts
21-Aug-18 18:54 36.080831 -115.138382 313 2192ft 0kts
21-Aug-18 18:55 36.080831 -115.138382 313 2192ft 0kts
21-Aug-18 18:56 36.080831 -115.138382 313 2192ft 0kts
21-Aug-18 18:57 36.080831 -115.138382 313 2192ft 0kts
21-Aug-18 18:58 36.080831 -115.138382 313 2192ft 0kts
21-Aug-18 18:59 36.080831 -115.138382 313 2192ft 0kts
21-Aug-18 19:00 36.080831 -115.138382 313 2192ft 0kts
21-Aug-18 19:01 36.080831 -115.138382 313 2192ft 0kts
21-Aug-18 19:02 36.080831 -115.138382 313 2192ft 0kts
21-Aug-18 19:03 36.080831 -115.138382 313 2192ft 0kts
21-Aug-18 19:04 36.080831 -115.138382 313 2192ft 0kts
21-Aug-18 19:05 36.080831 -115.138382 313 2192ft 0kts
21-Aug-18 19:06 36.080831 -115.138382 313 2192ft 0kts
21-Aug-18 19:07 36.080831 -115.138382 313 2192ft 0kts
21-Aug-18 19:08 36.080831 -115.138382 313 2192ft 0kts
21-Aug-18 19:09 36.080831 -115.138382 313 2192ft 0kts
21-Aug-18 19:10 36.080831 -115.138382 313 2192ft 0kts
21-Aug-18 19:11 36.080727 -115.138247 313 2192ft 2kts
21-Aug-18 19:12 36.080348 -115.137758 313 2192ft 0kts
21-Aug-18 19:13 36.080352 -115.137763 313 2192ft 0kts
21-Aug-18 19:14 36.080255 -115.137994 206 2192ft 0kts
21-Aug-18 19:15 36.080104 -115.138067 206 2192ft 0kts
21-Aug-18 19:16 36.080098 -115.138071 206 2192ft 0kts
21-Aug-18 19:17 36.080092 -115.138075 206 2192ft 0kts
21-Aug-18 19:18 36.078251 -115.138232 88 2192ft 20kts
21-Aug-18 19:19 36.078256 -115.132340 90 2192ft 16kts
21-Aug-18 19:20 36.078236 -115.125451 89 2192ft 16kts
21-Aug-18 19:21 36.077304 -115.121400 153 2192ft 0kts
21-Aug-18 19:22 36.077298 -115.121396 153 2192ft 0kts
21-Aug-18 19:23 36.076348 -115.122620 270 2192ft 37kts
21-Aug-18 19:24 36.076135 -115.171271 265 3106ft 203kts
21-Aug-18 19:25 36.074461 -115.248245 254 5461ft 261kts
21-Aug-18 19:26 36.020323 -115.289374 183 9740ft 263kts
21-Aug-18 19:27 35.940108 -115.300499 182 12314ft 323kts
21-Aug-18 19:28 35.846072 -115.314916 179 15040ft 357kts
21-Aug-18 19:29 35.744875 -115.302167 176 17788ft 376kts
21-Aug-18 19:30 35.638564 -115.296671 183 20300ft 386kts
21-Aug-18 19:31 35.529150 -115.300835 184 22439ft 401kts
21-Aug-18 19:32 35.427629 -115.353863 212 24489ft 404kts
21-Aug-18 19:33 35.330513 -115.426847 212 25871ft 414kts
21-Aug-18 19:34 35.232624 -115.498882 211 25938ft 409kts
21-Aug-18 19:35 35.136176 -115.569005 211 25950ft 408kts
21-Aug-18 19:36 35.055631 -115.665349 226 25966ft 407kts
21-Aug-18 19:37 34.985561 -115.772731 247 25985ft 408kts
21-Aug-18 19:38 34.911689 -115.873944 217 25986ft 409kts
21-Aug-18 19:39 34.826456 -115.965309 224 25989ft 408kts
21-Aug-18 19:40 34.745851 -116.063209 225 25982ft 408kts
21-Aug-18 19:41 34.666712 -116.162006 226 25990ft 408kts
21-Aug-18 19:42 34.587827 -116.261318 226 26060ft 409kts
21-Aug-18 19:43 34.508732 -116.361055 226 26074ft 409kts
21-Aug-18 19:44 34.430200 -116.459987 226 26082ft 404kts
21-Aug-18 19:45 34.374686 -116.576526 243 25365ft 397kts
21-Aug-18 19:46 34.326332 -116.695677 243 24361ft 392kts
21-Aug-18 19:47 34.278900 -116.813918 243 23091ft 387kts
21-Aug-18 19:48 34.232414 -116.929152 243 21067ft 374kts
21-Aug-18 19:49 34.194566 -117.044153 251 18994ft 365kts
21-Aug-18 19:50 34.163571 -117.159152 251 17241ft 353kts
21-Aug-18 19:51 34.132615 -117.271574 251 15664ft 349kts
21-Aug-18 19:52 34.102605 -117.380520 251 14211ft 332kts
21-Aug-18 19:53 34.075733 -117.487451 253 12679ft 333kts
21-Aug-18 19:54 34.049460 -117.591305 252 11548ft 315kts
21-Aug-18 19:55 34.024765 -117.687426 252 10231ft 281kts
21-Aug-18 19:56 34.014630 -117.777132 261 9242ft 263kts
21-Aug-18 19:57 34.005961 -117.863457 261 8111ft 253kts
21-Aug-18 19:58 33.997778 -117.947297 261 6990ft 249kts
21-Aug-18 19:59 33.989782 -118.028432 261 5641ft 230kts
21-Aug-18 20:00 33.982631 -118.100025 262 4302ft 204kts
21-Aug-18 20:01 33.976422 -118.164954 262 3934ft 189kts
21-Aug-18 20:02 33.971281 -118.215181 262 3132ft 178kts
21-Aug-18 20:03 33.964531 -118.281044 262 2077ft 153kts
21-Aug-18 20:04 33.960487 -118.320537 262 1478ft 135kts
21-Aug-18 20:05 33.956125 -118.362857 263 771ft 128kts
21-Aug-18 20:06 33.951228 -118.410944 264 137ft 84kts
21-Aug-18 20:07 33.949869 -118.418828 227 137ft 14kts
21-Aug-18 20:08 33.947754 -118.421899 231 137ft 18kts
21-Aug-18 20:09 33.947437 -118.418124 82 137ft 23kts
21-Aug-18 20:10 33.948200 -118.410772 82 137ft 18kts
21-Aug-18 20:11 33.946343 -118.408273 80 137ft 0kts
21-Aug-18 20:12 33.946343 -118.408273 80 137ft 0kts
21-Aug-18 20:13 33.946343 -118.408273 80 137ft 0kts
21-Aug-18 20:14 33.946343 -118.408273 80 137ft 0kts

Navigation Log

Ident Type
Flight plan parsing failed, navigation log unavailable